sensor_id;sensor_type;location;lat;lon;timestamp;P1;durP1;ratioP1;P2;durP2;ratioP2
22026;SDS011;11177;50.966;10.070;2023-07-20T00:01:30;5.90;;;2.60;;
22026;SDS011;11177;50.966;10.070;2023-07-20T00:03:57;4.28;;;2.80;;
22026;SDS011;11177;50.966;10.070;2023-07-20T00:06:27;4.07;;;2.10;;
22026;SDS011;11177;50.966;10.070;2023-07-20T00:08:54;3.25;;;2.28;;
22026;SDS011;11177;50.966;10.070;2023-07-20T00:11:27;2.25;;;2.05;;
22026;SDS011;11177;50.966;10.070;2023-07-20T00:13:54;4.30;;;2.25;;
22026;SDS011;11177;50.966;10.070;2023-07-20T00:16:21;2.92;;;2.20;;
22026;SDS011;11177;50.966;10.070;2023-07-20T00:18:48;3.60;;;2.42;;
22026;SDS011;11177;50.966;10.070;2023-07-20T00:21:15;3.05;;;2.20;;
22026;SDS011;11177;50.966;10.070;2023-07-20T00:23:42;8.27;;;2.40;;
22026;SDS011;11177;50.966;10.070;2023-07-20T00:26:09;2.40;;;2.20;;
22026;SDS011;11177;50.966;10.070;2023-07-20T00:28:36;3.75;;;2.13;;
22026;SDS011;11177;50.966;10.070;2023-07-20T00:31:02;2.60;;;2.10;;
22026;SDS011;11177;50.966;10.070;2023-07-20T00:33:29;7.40;;;2.40;;
22026;SDS011;11177;50.966;10.070;2023-07-20T00:35:56;3.90;;;2.42;;
22026;SDS011;11177;50.966;10.070;2023-07-20T00:38:23;3.33;;;2.30;;
22026;SDS011;11177;50.966;10.070;2023-07-20T00:40:50;2.85;;;2.42;;
22026;SDS011;11177;50.966;10.070;2023-07-20T00:43:17;2.80;;;2.25;;
22026;SDS011;11177;50.966;10.070;2023-07-20T00:45:43;4.40;;;2.60;;
22026;SDS011;11177;50.966;10.070;2023-07-20T00:48:11;3.85;;;2.58;;
22026;SDS011;11177;50.966;10.070;2023-07-20T00:50:39;4.72;;;2.60;;
22026;SDS011;11177;50.966;10.070;2023-07-20T00:53:07;3.75;;;2.67;;
22026;SDS011;11177;50.966;10.070;2023-07-20T00:55:46;4.78;;;2.85;;
22026;SDS011;11177;50.966;10.070;2023-07-20T00:58:16;3.65;;;2.72;;
22026;SDS011;11177;50.966;10.070;2023-07-20T01:00:43;3.65;;;2.80;;
22026;SDS011;11177;50.966;10.070;2023-07-20T01:03:09;4.22;;;2.55;;
22026;SDS011;11177;50.966;10.070;2023-07-20T01:11:36;3.35;;;2.92;;
22026;SDS011;11177;50.966;10.070;2023-07-20T01:14:05;2.70;;;2.50;;
22026;SDS011;11177;50.966;10.070;2023-07-20T01:16:33;3.60;;;2.70;;
22026;SDS011;11177;50.966;10.070;2023-07-20T01:19:00;5.78;;;2.75;;
22026;SDS011;11177;50.966;10.070;2023-07-20T01:21:31;4.43;;;2.92;;
22026;SDS011;11177;50.966;10.070;2023-07-20T01:24:18;5.63;;;2.80;;
22026;SDS011;11177;50.966;10.070;2023-07-20T01:27:00;3.22;;;2.72;;
22026;SDS011;11177;50.966;10.070;2023-07-20T01:32:47;4.72;;;2.90;;
22026;SDS011;11177;50.966;10.070;2023-07-20T01:35:14;4.40;;;2.58;;
22026;SDS011;11177;50.966;10.070;2023-07-20T01:37:43;5.10;;;2.95;;
22026;SDS011;11177;50.966;10.070;2023-07-20T01:40:11;3.33;;;2.92;;
22026;SDS011;11177;50.966;10.070;2023-07-20T01:42:43;3.03;;;2.60;;
22026;SDS011;11177;50.966;10.070;2023-07-20T01:45:12;5.70;;;2.90;;
22026;SDS011;11177;50.966;10.070;2023-07-20T01:47:39;4.05;;;2.83;;
22026;SDS011;11177;50.966;10.070;2023-07-20T01:50:06;6.53;;;2.80;;
22026;SDS011;11177;50.966;10.070;2023-07-20T01:52:33;4.45;;;2.63;;
22026;SDS011;11177;50.966;10.070;2023-07-20T01:55:00;3.90;;;2.80;;
22026;SDS011;11177;50.966;10.070;2023-07-20T01:57:27;3.75;;;2.72;;
22026;SDS011;11177;50.966;10.070;2023-07-20T01:59:54;6.18;;;3.20;;
22026;SDS011;11177;50.966;10.070;2023-07-20T02:02:20;4.18;;;2.92;;
22026;SDS011;11177;50.966;10.070;2023-07-20T02:04:47;6.28;;;3.17;;
22026;SDS011;11177;50.966;10.070;2023-07-20T02:07:14;4.15;;;3.00;;
22026;SDS011;11177;50.966;10.070;2023-07-20T02:09:41;6.72;;;3.30;;
22026;SDS011;11177;50.966;10.070;2023-07-20T02:12:08;4.43;;;2.95;;
22026;SDS011;11177;50.966;10.070;2023-07-20T02:14:35;4.07;;;2.92;;
22026;SDS011;11177;50.966;10.070;2023-07-20T02:17:02;4.68;;;2.90;;
22026;SDS011;11177;50.966;10.070;2023-07-20T02:19:29;4.78;;;2.80;;
22026;SDS011;11177;50.966;10.070;2023-07-20T02:21:57;3.47;;;2.92;;
22026;SDS011;11177;50.966;10.070;2023-07-20T02:24:24;3.78;;;2.80;;
22026;SDS011;11177;50.966;10.070;2023-07-20T02:26:52;3.78;;;2.70;;
22026;SDS011;11177;50.966;10.070;2023-07-20T02:29:19;4.07;;;2.90;;
22026;SDS011;11177;50.966;10.070;2023-07-20T02:31:46;3.33;;;2.80;;
22026;SDS011;11177;50.966;10.070;2023-07-20T02:34:12;4.10;;;3.10;;
22026;SDS011;11177;50.966;10.070;2023-07-20T02:36:40;5.70;;;2.97;;
22026;SDS011;11177;50.966;10.070;2023-07-20T02:39:09;3.40;;;3.00;;
22026;SDS011;11177;50.966;10.070;2023-07-20T02:41:36;3.50;;;3.00;;
22026;SDS011;11177;50.966;10.070;2023-07-20T02:44:02;3.92;;;3.20;;
22026;SDS011;11177;50.966;10.070;2023-07-20T02:46:30;4.32;;;3.00;;
22026;SDS011;11177;50.966;10.070;2023-07-20T02:48:57;3.35;;;2.67;;
22026;SDS011;11177;50.966;10.070;2023-07-20T02:51:24;3.72;;;2.63;;
22026;SDS011;11177;50.966;10.070;2023-07-20T02:53:51;5.95;;;2.75;;
22026;SDS011;11177;50.966;10.070;2023-07-20T02:56:17;2.70;;;2.50;;
22026;SDS011;11177;50.966;10.070;2023-07-20T02:58:44;2.80;;;2.53;;
22026;SDS011;11177;50.966;10.070;2023-07-20T03:01:12;5.70;;;2.92;;
22026;SDS011;11177;50.966;10.070;2023-07-20T03:03:39;3.10;;;2.80;;
22026;SDS011;11177;50.966;10.070;2023-07-20T03:06:06;4.10;;;2.88;;
22026;SDS011;11177;50.966;10.070;2023-07-20T03:08:35;2.72;;;2.50;;
22026;SDS011;11177;50.966;10.070;2023-07-20T03:11:02;3.65;;;3.00;;
22026;SDS011;11177;50.966;10.070;2023-07-20T03:13:29;4.25;;;2.72;;
22026;SDS011;11177;50.966;10.070;2023-07-20T03:15:56;2.50;;;2.28;;
22026;SDS011;11177;50.966;10.070;2023-07-20T03:18:23;6.40;;;2.90;;
22026;SDS011;11177;50.966;10.070;2023-07-20T03:20:50;3.60;;;2.70;;
22026;SDS011;11177;50.966;10.070;2023-07-20T03:23:17;3.28;;;2.63;;
22026;SDS011;11177;50.966;10.070;2023-07-20T03:25:44;4.38;;;2.80;;
22026;SDS011;11177;50.966;10.070;2023-07-20T03:28:10;3.53;;;2.75;;
22026;SDS011;11177;50.966;10.070;2023-07-20T03:30:37;4.72;;;2.55;;
22026;SDS011;11177;50.966;10.070;2023-07-20T03:33:04;2.70;;;2.50;;
22026;SDS011;11177;50.966;10.070;2023-07-20T03:35:31;5.18;;;3.00;;
22026;SDS011;11177;50.966;10.070;2023-07-20T03:37:58;5.63;;;3.05;;
22026;SDS011;11177;50.966;10.070;2023-07-20T03:40:25;5.50;;;3.20;;
22026;SDS011;11177;50.966;10.070;2023-07-20T03:42:51;4.22;;;3.20;;
22026;SDS011;11177;50.966;10.070;2023-07-20T03:45:18;3.85;;;3.05;;
22026;SDS011;11177;50.966;10.070;2023-07-20T03:47:45;3.85;;;3.45;;
22026;SDS011;11177;50.966;10.070;2023-07-20T03:50:14;3.80;;;3.40;;
22026;SDS011;11177;50.966;10.070;2023-07-20T03:52:41;8.90;;;3.75;;
22026;SDS011;11177;50.966;10.070;2023-07-20T03:55:08;4.38;;;3.67;;
22026;SDS011;11177;50.966;10.070;2023-07-20T03:57:35;5.45;;;3.30;;
22026;SDS011;11177;50.966;10.070;2023-07-20T04:00:02;3.80;;;3.20;;
22026;SDS011;11177;50.966;10.070;2023-07-20T04:02:33;4.25;;;3.25;;
22026;SDS011;11177;50.966;10.070;2023-07-20T04:05:00;4.13;;;3.20;;
22026;SDS011;11177;50.966;10.070;2023-07-20T04:07:27;4.78;;;3.20;;
22026;SDS011;11177;50.966;10.070;2023-07-20T04:09:53;4.75;;;3.05;;
22026;SDS011;11177;50.966;10.070;2023-07-20T04:12:20;6.15;;;3.45;;
22026;SDS011;11177;50.966;10.070;2023-07-20T04:14:47;6.97;;;2.90;;
22026;SDS011;11177;50.966;10.070;2023-07-20T04:17:14;5.65;;;3.40;;
22026;SDS011;11177;50.966;10.070;2023-07-20T04:19:41;3.92;;;3.08;;
22026;SDS011;11177;50.966;10.070;2023-07-20T04:22:08;8.35;;;3.63;;
22026;SDS011;11177;50.966;10.070;2023-07-20T04:24:35;5.00;;;4.10;;
22026;SDS011;11177;50.966;10.070;2023-07-20T04:27:01;4.78;;;3.60;;
22026;SDS011;11177;50.966;10.070;2023-07-20T04:29:28;7.00;;;3.95;;
22026;SDS011;11177;50.966;10.070;2023-07-20T04:31:55;3.63;;;3.30;;
22026;SDS011;11177;50.966;10.070;2023-07-20T04:34:22;4.43;;;3.63;;
22026;SDS011;11177;50.966;10.070;2023-07-20T04:36:50;4.90;;;3.22;;
22026;SDS011;11177;50.966;10.070;2023-07-20T04:39:16;4.90;;;3.90;;
22026;SDS011;11177;50.966;10.070;2023-07-20T04:41:57;4.47;;;3.53;;
22026;SDS011;11177;50.966;10.070;2023-07-20T04:44:24;6.97;;;3.30;;
22026;SDS011;11177;50.966;10.070;2023-07-20T04:46:51;3.72;;;3.38;;
22026;SDS011;11177;50.966;10.070;2023-07-20T04:49:18;5.47;;;3.60;;
22026;SDS011;11177;50.966;10.070;2023-07-20T04:51:45;8.05;;;3.85;;
22026;SDS011;11177;50.966;10.070;2023-07-20T04:54:12;4.93;;;3.78;;
22026;SDS011;11177;50.966;10.070;2023-07-20T04:56:40;8.02;;;3.85;;
22026;SDS011;11177;50.966;10.070;2023-07-20T04:59:07;6.40;;;4.18;;
22026;SDS011;11177;50.966;10.070;2023-07-20T05:01:34;5.75;;;4.60;;
22026;SDS011;11177;50.966;10.070;2023-07-20T05:04:01;7.18;;;4.20;;
22026;SDS011;11177;50.966;10.070;2023-07-20T05:06:28;5.30;;;4.40;;
22026;SDS011;11177;50.966;10.070;2023-07-20T05:08:55;6.55;;;3.95;;
22026;SDS011;11177;50.966;10.070;2023-07-20T05:11:22;5.10;;;4.40;;
22026;SDS011;11177;50.966;10.070;2023-07-20T05:13:49;6.53;;;4.00;;
22026;SDS011;11177;50.966;10.070;2023-07-20T05:16:16;6.10;;;4.05;;
22026;SDS011;11177;50.966;10.070;2023-07-20T05:18:43;6.20;;;4.20;;
22026;SDS011;11177;50.966;10.070;2023-07-20T05:21:10;7.80;;;4.75;;
22026;SDS011;11177;50.966;10.070;2023-07-20T05:23:37;7.90;;;4.55;;
22026;SDS011;11177;50.966;10.070;2023-07-20T05:26:04;9.60;;;5.20;;
22026;SDS011;11177;50.966;10.070;2023-07-20T05:28:32;5.13;;;4.63;;
22026;SDS011;11177;50.966;10.070;2023-07-20T05:30:59;7.85;;;4.85;;
22026;SDS011;11177;50.966;10.070;2023-07-20T05:33:26;6.68;;;5.00;;
22026;SDS011;11177;50.966;10.070;2023-07-20T05:35:53;9.23;;;4.85;;
22026;SDS011;11177;50.966;10.070;2023-07-20T05:38:19;5.72;;;4.30;;
22026;SDS011;11177;50.966;10.070;2023-07-20T05:40:46;5.88;;;4.60;;
22026;SDS011;11177;50.966;10.070;2023-07-20T05:43:13;7.32;;;4.30;;
22026;SDS011;11177;50.966;10.070;2023-07-20T05:45:43;7.13;;;4.82;;
22026;SDS011;11177;50.966;10.070;2023-07-20T05:48:11;8.32;;;5.40;;
22026;SDS011;11177;50.966;10.070;2023-07-20T05:50:42;6.30;;;4.38;;
22026;SDS011;11177;50.966;10.070;2023-07-20T05:53:13;6.60;;;4.50;;
22026;SDS011;11177;50.966;10.070;2023-07-20T05:55:39;6.32;;;5.03;;
22026;SDS011;11177;50.966;10.070;2023-07-20T05:58:07;5.78;;;4.43;;
22026;SDS011;11177;50.966;10.070;2023-07-20T06:00:33;6.40;;;4.15;;
22026;SDS011;11177;50.966;10.070;2023-07-20T06:03:00;24.88;;;5.00;;
22026;SDS011;11177;50.966;10.070;2023-07-20T06:05:29;6.78;;;4.80;;
22026;SDS011;11177;50.966;10.070;2023-07-20T06:07:56;6.10;;;4.43;;
22026;SDS011;11177;50.966;10.070;2023-07-20T06:10:24;7.35;;;4.15;;
22026;SDS011;11177;50.966;10.070;2023-07-20T06:12:51;7.55;;;4.70;;
22026;SDS011;11177;50.966;10.070;2023-07-20T06:15:24;6.97;;;4.75;;
22026;SDS011;11177;50.966;10.070;2023-07-20T06:17:53;6.20;;;4.47;;
22026;SDS011;11177;50.966;10.070;2023-07-20T06:20:21;8.80;;;4.43;;
22026;SDS011;11177;50.966;10.070;2023-07-20T06:22:48;10.27;;;4.18;;
22026;SDS011;11177;50.966;10.070;2023-07-20T06:25:15;7.18;;;4.75;;
22026;SDS011;11177;50.966;10.070;2023-07-20T06:27:42;8.50;;;5.40;;
22026;SDS011;11177;50.966;10.070;2023-07-20T06:30:09;10.98;;;5.32;;
22026;SDS011;11177;50.966;10.070;2023-07-20T06:32:37;6.93;;;4.50;;
22026;SDS011;11177;50.966;10.070;2023-07-20T06:35:04;6.35;;;4.57;;
22026;SDS011;11177;50.966;10.070;2023-07-20T06:37:32;6.43;;;4.38;;
22026;SDS011;11177;50.966;10.070;2023-07-20T06:39:59;7.65;;;5.13;;
22026;SDS011;11177;50.966;10.070;2023-07-20T06:42:29;5.43;;;4.63;;
22026;SDS011;11177;50.966;10.070;2023-07-20T06:44:59;6.30;;;4.93;;
22026;SDS011;11177;50.966;10.070;2023-07-20T06:47:26;9.00;;;4.65;;
22026;SDS011;11177;50.966;10.070;2023-07-20T06:49:53;8.00;;;4.20;;
22026;SDS011;11177;50.966;10.070;2023-07-20T06:52:19;7.82;;;4.30;;
22026;SDS011;11177;50.966;10.070;2023-07-20T06:54:46;5.65;;;4.00;;
22026;SDS011;11177;50.966;10.070;2023-07-20T06:57:14;4.72;;;3.58;;
22026;SDS011;11177;50.966;10.070;2023-07-20T06:59:45;6.97;;;3.97;;
22026;SDS011;11177;50.966;10.070;2023-07-20T07:02:12;3.95;;;3.63;;
22026;SDS011;11177;50.966;10.070;2023-07-20T07:04:40;4.85;;;3.40;;
22026;SDS011;11177;50.966;10.070;2023-07-20T07:07:08;4.65;;;3.20;;
22026;SDS011;11177;50.966;10.070;2023-07-20T07:09:36;3.58;;;2.90;;
22026;SDS011;11177;50.966;10.070;2023-07-20T07:12:03;6.88;;;2.92;;
22026;SDS011;11177;50.966;10.070;2023-07-20T07:14:30;4.32;;;2.83;;
22026;SDS011;11177;50.966;10.070;2023-07-20T07:16:58;5.43;;;3.28;;
22026;SDS011;11177;50.966;10.070;2023-07-20T07:19:30;5.05;;;3.40;;
22026;SDS011;11177;50.966;10.070;2023-07-20T07:21:57;4.75;;;2.92;;
22026;SDS011;11177;50.966;10.070;2023-07-20T07:24:26;3.00;;;2.70;;
22026;SDS011;11177;50.966;10.070;2023-07-20T07:26:55;4.13;;;2.65;;
22026;SDS011;11177;50.966;10.070;2023-07-20T07:29:22;3.05;;;2.75;;
22026;SDS011;11177;50.966;10.070;2023-07-20T07:31:49;4.70;;;2.97;;
22026;SDS011;11177;50.966;10.070;2023-07-20T07:34:16;4.47;;;2.80;;
22026;SDS011;11177;50.966;10.070;2023-07-20T07:36:43;3.72;;;2.60;;
22026;SDS011;11177;50.966;10.070;2023-07-20T07:39:10;5.40;;;2.60;;
22026;SDS011;11177;50.966;10.070;2023-07-20T07:41:57;3.33;;;2.50;;
22026;SDS011;11177;50.966;10.070;2023-07-20T07:44:25;2.53;;;2.33;;
22026;SDS011;11177;50.966;10.070;2023-07-20T07:46:52;5.25;;;2.53;;
22026;SDS011;11177;50.966;10.070;2023-07-20T07:49:19;4.55;;;2.70;;
22026;SDS011;11177;50.966;10.070;2023-07-20T07:51:46;6.93;;;2.75;;
22026;SDS011;11177;50.966;10.070;2023-07-20T07:54:13;7.40;;;3.08;;
22026;SDS011;11177;50.966;10.070;2023-07-20T07:56:41;5.38;;;2.60;;
22026;SDS011;11177;50.966;10.070;2023-07-20T07:59:07;3.83;;;3.15;;
22026;SDS011;11177;50.966;10.070;2023-07-20T08:01:35;4.05;;;3.00;;
22026;SDS011;11177;50.966;10.070;2023-07-20T08:04:02;3.40;;;2.50;;
22026;SDS011;11177;50.966;10.070;2023-07-20T08:06:30;5.10;;;2.75;;
22026;SDS011;11177;50.966;10.070;2023-07-20T08:08:58;7.50;;;2.80;;
22026;SDS011;11177;50.966;10.070;2023-07-20T08:11:24;4.47;;;3.33;;
22026;SDS011;11177;50.966;10.070;2023-07-20T08:13:51;4.32;;;3.50;;
22026;SDS011;11177;50.966;10.070;2023-07-20T08:16:18;4.82;;;3.15;;
22026;SDS011;11177;50.966;10.070;2023-07-20T08:18:45;3.00;;;2.70;;
22026;SDS011;11177;50.966;10.070;2023-07-20T08:21:13;7.13;;;3.03;;
22026;SDS011;11177;50.966;10.070;2023-07-20T08:23:39;4.55;;;2.95;;
22026;SDS011;11177;50.966;10.070;2023-07-20T08:26:06;3.78;;;3.10;;
22026;SDS011;11177;50.966;10.070;2023-07-20T08:28:33;3.63;;;3.10;;
22026;SDS011;11177;50.966;10.070;2023-07-20T08:31:00;3.92;;;2.80;;
22026;SDS011;11177;50.966;10.070;2023-07-20T08:33:27;5.88;;;2.70;;
22026;SDS011;11177;50.966;10.070;2023-07-20T08:35:56;3.95;;;2.78;;
22026;SDS011;11177;50.966;10.070;2023-07-20T08:38:24;3.13;;;2.67;;
22026;SDS011;11177;50.966;10.070;2023-07-20T08:40:51;3.50;;;2.42;;
22026;SDS011;11177;50.966;10.070;2023-07-20T08:43:20;2.97;;;2.50;;
22026;SDS011;11177;50.966;10.070;2023-07-20T08:45:50;2.83;;;2.50;;
22026;SDS011;11177;50.966;10.070;2023-07-20T08:48:18;4.45;;;2.47;;
22026;SDS011;11177;50.966;10.070;2023-07-20T08:50:45;7.68;;;2.97;;
22026;SDS011;11177;50.966;10.070;2023-07-20T08:53:12;4.68;;;2.35;;
22026;SDS011;11177;50.966;10.070;2023-07-20T08:55:40;2.97;;;2.42;;
22026;SDS011;11177;50.966;10.070;2023-07-20T08:58:08;3.58;;;2.67;;
22026;SDS011;11177;50.966;10.070;2023-07-20T09:00:35;2.90;;;2.28;;
22026;SDS011;11177;50.966;10.070;2023-07-20T09:03:02;2.05;;;1.85;;
22026;SDS011;11177;50.966;10.070;2023-07-20T09:05:29;3.30;;;2.63;;
22026;SDS011;11177;50.966;10.070;2023-07-20T09:07:58;3.75;;;2.25;;
22026;SDS011;11177;50.966;10.070;2023-07-20T09:10:25;2.50;;;2.13;;
22026;SDS011;11177;50.966;10.070;2023-07-20T09:12:52;2.80;;;2.30;;
22026;SDS011;11177;50.966;10.070;2023-07-20T09:15:19;2.40;;;2.20;;
22026;SDS011;11177;50.966;10.070;2023-07-20T09:17:46;2.28;;;2.08;;
22026;SDS011;11177;50.966;10.070;2023-07-20T09:20:18;2.33;;;2.15;;
22026;SDS011;11177;50.966;10.070;2023-07-20T09:22:50;4.55;;;2.33;;
22026;SDS011;11177;50.966;10.070;2023-07-20T09:25:19;2.78;;;1.90;;
22026;SDS011;11177;50.966;10.070;2023-07-20T09:27:49;2.88;;;2.00;;
22026;SDS011;11177;50.966;10.070;2023-07-20T09:30:18;3.45;;;2.30;;
22026;SDS011;11177;50.966;10.070;2023-07-20T09:32:46;2.63;;;2.25;;
22026;SDS011;11177;50.966;10.070;2023-07-20T09:35:17;7.35;;;2.90;;
22026;SDS011;11177;50.966;10.070;2023-07-20T09:37:54;5.13;;;2.80;;
22026;SDS011;11177;50.966;10.070;2023-07-20T09:40:25;5.88;;;2.90;;
22026;SDS011;11177;50.966;10.070;2023-07-20T09:43:13;7.85;;;3.50;;
22026;SDS011;11177;50.966;10.070;2023-07-20T09:45:45;3.83;;;3.00;;
22026;SDS011;11177;50.966;10.070;2023-07-20T09:48:15;4.32;;;2.42;;
22026;SDS011;11177;50.966;10.070;2023-07-20T09:50:49;3.20;;;2.63;;
22026;SDS011;11177;50.966;10.070;2023-07-20T09:53:17;4.50;;;2.70;;
22026;SDS011;11177;50.966;10.070;2023-07-20T09:55:45;4.60;;;3.03;;
22026;SDS011;11177;50.966;10.070;2023-07-20T09:58:13;3.47;;;2.75;;
22026;SDS011;11177;50.966;10.070;2023-07-20T10:00:41;4.15;;;2.83;;
22026;SDS011;11177;50.966;10.070;2023-07-20T10:03:18;3.95;;;2.70;;
22026;SDS011;11177;50.966;10.070;2023-07-20T10:05:48;3.05;;;2.55;;
22026;SDS011;11177;50.966;10.070;2023-07-20T10:08:18;2.50;;;2.22;;
22026;SDS011;11177;50.966;10.070;2023-07-20T10:10:57;2.60;;;2.40;;
22026;SDS011;11177;50.966;10.070;2023-07-20T10:13:27;3.88;;;2.25;;
22026;SDS011;11177;50.966;10.070;2023-07-20T10:15:59;2.78;;;2.35;;
22026;SDS011;11177;50.966;10.070;2023-07-20T10:18:31;2.00;;;1.90;;
22026;SDS011;11177;50.966;10.070;2023-07-20T10:21:17;2.35;;;2.15;;
22026;SDS011;11177;50.966;10.070;2023-07-20T10:23:49;1.90;;;1.77;;
22026;SDS011;11177;50.966;10.070;2023-07-20T10:26:16;2.95;;;1.80;;
22026;SDS011;11177;50.966;10.070;2023-07-20T10:28:43;2.05;;;1.85;;
22026;SDS011;11177;50.966;10.070;2023-07-20T10:31:10;2.00;;;1.80;;
22026;SDS011;11177;50.966;10.070;2023-07-20T10:33:38;3.80;;;1.67;;
22026;SDS011;11177;50.966;10.070;2023-07-20T10:36:07;1.77;;;1.67;;
22026;SDS011;11177;50.966;10.070;2023-07-20T10:38:40;3.15;;;1.60;;
22026;SDS011;11177;50.966;10.070;2023-07-20T10:41:18;2.40;;;1.75;;
22026;SDS011;11177;50.966;10.070;2023-07-20T10:43:51;1.65;;;1.55;;
22026;SDS011;11177;50.966;10.070;2023-07-20T10:46:34;1.67;;;1.53;;
22026;SDS011;11177;50.966;10.070;2023-07-20T10:49:19;1.40;;;1.30;;
22026;SDS011;11177;50.966;10.070;2023-07-20T10:51:56;1.50;;;1.40;;
22026;SDS011;11177;50.966;10.070;2023-07-20T10:57:29;2.63;;;1.40;;
22026;SDS011;11177;50.966;10.070;2023-07-20T11:00:11;2.67;;;1.50;;
22026;SDS011;11177;50.966;10.070;2023-07-20T11:02:46;1.60;;;1.50;;
22026;SDS011;11177;50.966;10.070;2023-07-20T11:05:36;1.48;;;1.38;;
22026;SDS011;11177;50.966;10.070;2023-07-20T11:08:04;3.15;;;1.35;;
22026;SDS011;11177;50.966;10.070;2023-07-20T11:10:32;1.60;;;1.50;;
22026;SDS011;11177;50.966;10.070;2023-07-20T11:13:18;2.10;;;1.60;;
22026;SDS011;11177;50.966;10.070;2023-07-20T11:18:33;1.67;;;1.52;;
22026;SDS011;11177;50.966;10.070;2023-07-20T11:21:07;1.60;;;1.50;;
22026;SDS011;11177;50.966;10.070;2023-07-20T11:23:37;1.80;;;1.48;;
22026;SDS011;11177;50.966;10.070;2023-07-20T11:26:04;2.40;;;1.70;;
22026;SDS011;11177;50.966;10.070;2023-07-20T11:28:31;2.05;;;1.80;;
22026;SDS011;11177;50.966;10.070;2023-07-20T11:30:58;2.20;;;1.88;;
22026;SDS011;11177;50.966;10.070;2023-07-20T11:33:25;2.85;;;1.90;;
22026;SDS011;11177;50.966;10.070;2023-07-20T11:35:53;1.95;;;1.85;;
22026;SDS011;11177;50.966;10.070;2023-07-20T11:38:20;2.45;;;1.73;;
22026;SDS011;11177;50.966;10.070;2023-07-20T11:40:47;1.90;;;1.80;;
22026;SDS011;11177;50.966;10.070;2023-07-20T11:43:14;2.47;;;1.98;;
22026;SDS011;11177;50.966;10.070;2023-07-20T11:45:44;2.03;;;1.83;;
22026;SDS011;11177;50.966;10.070;2023-07-20T11:48:15;1.95;;;1.80;;
22026;SDS011;11177;50.966;10.070;2023-07-20T11:50:43;3.75;;;2.03;;
22026;SDS011;11177;50.966;10.070;2023-07-20T11:53:10;2.20;;;2.00;;
22026;SDS011;11177;50.966;10.070;2023-07-20T11:55:38;2.83;;;1.92;;
22026;SDS011;11177;50.966;10.070;2023-07-20T11:58:05;2.38;;;2.08;;
22026;SDS011;11177;50.966;10.070;2023-07-20T12:00:33;2.83;;;2.55;;
22026;SDS011;11177;50.966;10.070;2023-07-20T12:03:01;3.25;;;2.95;;
22026;SDS011;11177;50.966;10.070;2023-07-20T12:05:28;3.92;;;2.00;;
22026;SDS011;11177;50.966;10.070;2023-07-20T12:07:54;2.53;;;2.33;;
22026;SDS011;11177;50.966;10.070;2023-07-20T12:10:25;2.85;;;2.25;;
22026;SDS011;11177;50.966;10.070;2023-07-20T12:12:53;3.95;;;2.20;;
22026;SDS011;11177;50.966;10.070;2023-07-20T12:15:20;1.80;;;1.70;;
22026;SDS011;11177;50.966;10.070;2023-07-20T12:17:49;2.05;;;1.73;;
22026;SDS011;11177;50.966;10.070;2023-07-20T12:20:28;5.07;;;2.10;;
22026;SDS011;11177;50.966;10.070;2023-07-20T12:23:08;1.60;;;1.50;;
22026;SDS011;11177;50.966;10.070;2023-07-20T12:25:42;2.10;;;1.70;;
22026;SDS011;11177;50.966;10.070;2023-07-20T12:28:12;2.65;;;2.45;;
22026;SDS011;11177;50.966;10.070;2023-07-20T12:30:41;2.30;;;1.80;;
22026;SDS011;11177;50.966;10.070;2023-07-20T12:33:08;2.38;;;1.80;;
22026;SDS011;11177;50.966;10.070;2023-07-20T12:35:35;2.20;;;1.80;;
22026;SDS011;11177;50.966;10.070;2023-07-20T12:38:03;2.80;;;2.15;;
22026;SDS011;11177;50.966;10.070;2023-07-20T12:40:30;2.65;;;1.77;;
22026;SDS011;11177;50.966;10.070;2023-07-20T12:42:57;1.92;;;1.70;;
22026;SDS011;11177;50.966;10.070;2023-07-20T12:45:24;1.98;;;1.85;;
22026;SDS011;11177;50.966;10.070;2023-07-20T12:47:51;2.63;;;1.80;;
22026;SDS011;11177;50.966;10.070;2023-07-20T12:50:18;1.92;;;1.75;;
22026;SDS011;11177;50.966;10.070;2023-07-20T12:52:45;2.20;;;2.00;;
22026;SDS011;11177;50.966;10.070;2023-07-20T12:55:12;1.80;;;1.70;;
22026;SDS011;11177;50.966;10.070;2023-07-20T12:57:40;5.15;;;2.03;;
22026;SDS011;11177;50.966;10.070;2023-07-20T13:00:09;13.27;;;2.50;;
22026;SDS011;11177;50.966;10.070;2023-07-20T13:02:38;2.03;;;1.60;;
22026;SDS011;11177;50.966;10.070;2023-07-20T13:05:05;2.47;;;1.77;;
22026;SDS011;11177;50.966;10.070;2023-07-20T13:07:33;2.15;;;1.70;;
22026;SDS011;11177;50.966;10.070;2023-07-20T13:10:05;2.53;;;1.40;;
22026;SDS011;11177;50.966;10.070;2023-07-20T13:12:32;6.68;;;1.58;;
22026;SDS011;11177;50.966;10.070;2023-07-20T13:15:04;1.60;;;1.50;;
22026;SDS011;11177;50.966;10.070;2023-07-20T13:17:36;2.78;;;1.50;;
22026;SDS011;11177;50.966;10.070;2023-07-20T13:20:04;2.50;;;1.80;;
22026;SDS011;11177;50.966;10.070;2023-07-20T13:22:33;2.08;;;1.67;;
22026;SDS011;11177;50.966;10.070;2023-07-20T13:25:00;3.20;;;1.60;;
22026;SDS011;11177;50.966;10.070;2023-07-20T13:27:27;2.33;;;1.60;;
22026;SDS011;11177;50.966;10.070;2023-07-20T13:29:54;1.65;;;1.55;;
22026;SDS011;11177;50.966;10.070;2023-07-20T13:32:23;1.63;;;1.52;;
22026;SDS011;11177;50.966;10.070;2023-07-20T13:34:50;1.70;;;1.60;;
22026;SDS011;11177;50.966;10.070;2023-07-20T13:37:17;1.58;;;1.40;;
22026;SDS011;11177;50.966;10.070;2023-07-20T13:39:44;2.15;;;1.40;;
22026;SDS011;11177;50.966;10.070;2023-07-20T13:42:11;1.48;;;1.38;;
22026;SDS011;11177;50.966;10.070;2023-07-20T13:44:39;1.67;;;1.58;;
22026;SDS011;11177;50.966;10.070;2023-07-20T13:47:06;2.00;;;1.40;;
22026;SDS011;11177;50.966;10.070;2023-07-20T13:49:35;1.67;;;1.58;;
22026;SDS011;11177;50.966;10.070;2023-07-20T13:52:13;1.63;;;1.38;;
22026;SDS011;11177;50.966;10.070;2023-07-20T13:54:43;1.50;;;1.40;;
22026;SDS011;11177;50.966;10.070;2023-07-20T13:57:13;1.48;;;1.38;;
22026;SDS011;11177;50.966;10.070;2023-07-20T13:59:42;1.67;;;1.58;;
22026;SDS011;11177;50.966;10.070;2023-07-20T14:02:09;2.08;;;1.40;;
22026;SDS011;11177;50.966;10.070;2023-07-20T14:04:39;1.38;;;1.30;;
22026;SDS011;11177;50.966;10.070;2023-07-20T14:07:08;1.45;;;1.33;;
22026;SDS011;11177;50.966;10.070;2023-07-20T14:09:35;1.55;;;1.45;;
22026;SDS011;11177;50.966;10.070;2023-07-20T14:12:03;3.47;;;1.50;;
22026;SDS011;11177;50.966;10.070;2023-07-20T14:14:33;2.03;;;1.38;;
22026;SDS011;11177;50.966;10.070;2023-07-20T14:17:00;2.25;;;1.65;;
22026;SDS011;11177;50.966;10.070;2023-07-20T14:19:26;2.22;;;1.50;;
22026;SDS011;11177;50.966;10.070;2023-07-20T14:21:53;3.63;;;1.70;;
22026;SDS011;11177;50.966;10.070;2023-07-20T14:24:21;1.50;;;1.40;;
22026;SDS011;11177;50.966;10.070;2023-07-20T14:26:48;1.35;;;1.27;;
22026;SDS011;11177;50.966;10.070;2023-07-20T14:29:17;1.98;;;1.33;;
22026;SDS011;11177;50.966;10.070;2023-07-20T14:31:45;2.55;;;1.33;;
22026;SDS011;11177;50.966;10.070;2023-07-20T14:34:14;1.60;;;1.50;;
22026;SDS011;11177;50.966;10.070;2023-07-20T14:36:41;1.90;;;1.58;;
22026;SDS011;11177;50.966;10.070;2023-07-20T14:39:08;1.40;;;1.30;;
22026;SDS011;11177;50.966;10.070;2023-07-20T14:41:35;1.52;;;1.38;;
22026;SDS011;11177;50.966;10.070;2023-07-20T14:44:02;1.50;;;1.40;;
22026;SDS011;11177;50.966;10.070;2023-07-20T14:46:29;1.73;;;1.63;;
22026;SDS011;11177;50.966;10.070;2023-07-20T14:48:59;1.35;;;1.25;;
22026;SDS011;11177;50.966;10.070;2023-07-20T14:51:26;1.65;;;1.13;;
22026;SDS011;11177;50.966;10.070;2023-07-20T14:54:01;1.98;;;1.40;;
22026;SDS011;11177;50.966;10.070;2023-07-20T14:56:28;1.58;;;1.33;;